sensor_id;sensor_type;location;lat;lon;timestamp;P1;durP1;ratioP1;P2;durP2;ratioP2
52530;SDS011;38441;52.894;6.040;2023-12-28T00:00:16;4.13;;;2.22;;
52530;SDS011;38441;52.894;6.040;2023-12-28T00:02:43;3.97;;;1.85;;
52530;SDS011;38441;52.894;6.040;2023-12-28T00:05:09;5.35;;;2.17;;
52530;SDS011;38441;52.894;6.040;2023-12-28T00:07:34;5.50;;;2.53;;
52530;SDS011;38441;52.894;6.040;2023-12-28T00:10:01;7.22;;;2.22;;
52530;SDS011;38441;52.894;6.040;2023-12-28T00:12:27;4.32;;;2.13;;
52530;SDS011;38441;52.894;6.040;2023-12-28T00:14:53;5.80;;;2.15;;
52530;SDS011;38441;52.894;6.040;2023-12-28T00:17:19;4.05;;;2.22;;
52530;SDS011;38441;52.894;6.040;2023-12-28T00:19:45;8.75;;;2.40;;
52530;SDS011;38441;52.894;6.040;2023-12-28T00:22:11;8.80;;;2.60;;
52530;SDS011;38441;52.894;6.040;2023-12-28T00:24:37;6.55;;;2.50;;
52530;SDS011;38441;52.894;6.040;2023-12-28T00:27:03;5.10;;;2.35;;
52530;SDS011;38441;52.894;6.040;2023-12-28T00:29:30;6.97;;;2.30;;
52530;SDS011;38441;52.894;6.040;2023-12-28T00:31:56;7.28;;;2.28;;
52530;SDS011;38441;52.894;6.040;2023-12-28T00:34:22;6.72;;;2.30;;
52530;SDS011;38441;52.894;6.040;2023-12-28T00:36:48;7.22;;;2.17;;
52530;SDS011;38441;52.894;6.040;2023-12-28T00:39:14;7.78;;;2.60;;
52530;SDS011;38441;52.894;6.040;2023-12-28T00:41:40;6.10;;;2.22;;
52530;SDS011;38441;52.894;6.040;2023-12-28T00:44:06;7.78;;;2.42;;
52530;SDS011;38441;52.894;6.040;2023-12-28T00:46:34;7.30;;;2.55;;
52530;SDS011;38441;52.894;6.040;2023-12-28T00:49:01;10.18;;;2.65;;
52530;SDS011;38441;52.894;6.040;2023-12-28T00:51:27;9.65;;;2.53;;
52530;SDS011;38441;52.894;6.040;2023-12-28T00:53:53;5.70;;;1.90;;
52530;SDS011;38441;52.894;6.040;2023-12-28T00:56:19;7.60;;;1.98;;
52530;SDS011;38441;52.894;6.040;2023-12-28T00:58:46;8.00;;;2.15;;
52530;SDS011;38441;52.894;6.040;2023-12-28T01:01:12;8.30;;;2.65;;
52530;SDS011;38441;52.894;6.040;2023-12-28T01:03:38;9.57;;;2.88;;
52530;SDS011;38441;52.894;6.040;2023-12-28T01:06:05;7.72;;;2.17;;
52530;SDS011;38441;52.894;6.040;2023-12-28T01:08:31;6.50;;;2.60;;
52530;SDS011;38441;52.894;6.040;2023-12-28T01:10:59;9.27;;;1.95;;
52530;SDS011;38441;52.894;6.040;2023-12-28T01:13:25;7.68;;;1.98;;
52530;SDS011;38441;52.894;6.040;2023-12-28T01:15:51;7.93;;;2.08;;
52530;SDS011;38441;52.894;6.040;2023-12-28T01:18:17;6.03;;;2.10;;
52530;SDS011;38441;52.894;6.040;2023-12-28T01:20:43;12.82;;;3.00;;
52530;SDS011;38441;52.894;6.040;2023-12-28T01:23:09;11.35;;;2.28;;
52530;SDS011;38441;52.894;6.040;2023-12-28T01:25:35;9.07;;;1.92;;
52530;SDS011;38441;52.894;6.040;2023-12-28T01:28:01;8.85;;;2.10;;
52530;SDS011;38441;52.894;6.040;2023-12-28T01:30:27;9.52;;;1.80;;
52530;SDS011;38441;52.894;6.040;2023-12-28T01:32:53;11.52;;;2.00;;
52530;SDS011;38441;52.894;6.040;2023-12-28T01:35:19;6.93;;;2.20;;
52530;SDS011;38441;52.894;6.040;2023-12-28T01:37:45;6.90;;;2.50;;
52530;SDS011;38441;52.894;6.040;2023-12-28T01:40:11;6.25;;;1.58;;
52530;SDS011;38441;52.894;6.040;2023-12-28T01:42:37;7.13;;;1.90;;
52530;SDS011;38441;52.894;6.040;2023-12-28T01:45:04;10.90;;;2.10;;
52530;SDS011;38441;52.894;6.040;2023-12-28T01:47:30;6.05;;;1.83;;
52530;SDS011;38441;52.894;6.040;2023-12-28T01:49:56;8.50;;;2.10;;
52530;SDS011;38441;52.894;6.040;2023-12-28T01:52:23;12.32;;;2.47;;
52530;SDS011;38441;52.894;6.040;2023-12-28T01:54:49;6.35;;;2.17;;
52530;SDS011;38441;52.894;6.040;2023-12-28T01:57:15;6.88;;;2.03;;
52530;SDS011;38441;52.894;6.040;2023-12-28T01:59:41;10.35;;;2.25;;
52530;SDS011;38441;52.894;6.040;2023-12-28T02:02:07;11.73;;;2.55;;
52530;SDS011;38441;52.894;6.040;2023-12-28T02:04:33;8.30;;;2.20;;
52530;SDS011;38441;52.894;6.040;2023-12-28T02:07:00;7.88;;;2.45;;
52530;SDS011;38441;52.894;6.040;2023-12-28T02:09:26;10.32;;;2.20;;
52530;SDS011;38441;52.894;6.040;2023-12-28T02:11:52;9.50;;;2.10;;
52530;SDS011;38441;52.894;6.040;2023-12-28T02:14:19;7.50;;;1.92;;
52530;SDS011;38441;52.894;6.040;2023-12-28T02:16:51;8.38;;;1.83;;
52530;SDS011;38441;52.894;6.040;2023-12-28T02:19:31;10.43;;;2.15;;
52530;SDS011;38441;52.894;6.040;2023-12-28T02:21:58;6.35;;;2.08;;
52530;SDS011;38441;52.894;6.040;2023-12-28T02:24:25;11.82;;;2.30;;
52530;SDS011;38441;52.894;6.040;2023-12-28T02:26:50;9.63;;;1.92;;
52530;SDS011;38441;52.894;6.040;2023-12-28T02:29:18;9.45;;;2.00;;
52530;SDS011;38441;52.894;6.040;2023-12-28T02:31:46;11.38;;;3.00;;
52530;SDS011;38441;52.894;6.040;2023-12-28T02:34:13;8.65;;;2.25;;
52530;SDS011;38441;52.894;6.040;2023-12-28T02:36:41;5.80;;;2.03;;
52530;SDS011;38441;52.894;6.040;2023-12-28T02:39:10;8.65;;;2.53;;
52530;SDS011;38441;52.894;6.040;2023-12-28T02:41:37;9.48;;;2.22;;
52530;SDS011;38441;52.894;6.040;2023-12-28T02:44:03;9.27;;;2.00;;
52530;SDS011;38441;52.894;6.040;2023-12-28T02:46:29;9.70;;;1.95;;
52530;SDS011;38441;52.894;6.040;2023-12-28T02:48:55;6.30;;;1.70;;
52530;SDS011;38441;52.894;6.040;2023-12-28T02:51:24;7.05;;;1.95;;
52530;SDS011;38441;52.894;6.040;2023-12-28T02:53:50;10.60;;;2.38;;
52530;SDS011;38441;52.894;6.040;2023-12-28T02:56:16;10.23;;;1.85;;
52530;SDS011;38441;52.894;6.040;2023-12-28T02:58:42;13.75;;;2.20;;
52530;SDS011;38441;52.894;6.040;2023-12-28T03:01:08;7.35;;;1.73;;
52530;SDS011;38441;52.894;6.040;2023-12-28T03:03:34;10.80;;;2.72;;
52530;SDS011;38441;52.894;6.040;2023-12-28T03:06:00;7.30;;;1.70;;
52530;SDS011;38441;52.894;6.040;2023-12-28T03:08:26;8.18;;;2.63;;
52530;SDS011;38441;52.894;6.040;2023-12-28T03:10:52;9.10;;;2.25;;
52530;SDS011;38441;52.894;6.040;2023-12-28T03:13:20;7.05;;;1.40;;
52530;SDS011;38441;52.894;6.040;2023-12-28T03:15:46;9.45;;;1.60;;
52530;SDS011;38441;52.894;6.040;2023-12-28T03:18:12;9.93;;;1.60;;
52530;SDS011;38441;52.894;6.040;2023-12-28T03:20:38;13.10;;;2.65;;
52530;SDS011;38441;52.894;6.040;2023-12-28T03:23:04;7.63;;;2.63;;
52530;SDS011;38441;52.894;6.040;2023-12-28T03:25:30;9.65;;;1.98;;
52530;SDS011;38441;52.894;6.040;2023-12-28T03:27:56;7.78;;;1.85;;
52530;SDS011;38441;52.894;6.040;2023-12-28T03:30:22;9.52;;;2.10;;
52530;SDS011;38441;52.894;6.040;2023-12-28T03:32:48;6.15;;;1.65;;
52530;SDS011;38441;52.894;6.040;2023-12-28T03:35:14;9.55;;;2.17;;
52530;SDS011;38441;52.894;6.040;2023-12-28T03:37:40;5.57;;;1.60;;
52530;SDS011;38441;52.894;6.040;2023-12-28T03:40:06;6.07;;;1.88;;
52530;SDS011;38441;52.894;6.040;2023-12-28T03:42:32;10.30;;;2.05;;
52530;SDS011;38441;52.894;6.040;2023-12-28T03:44:58;5.43;;;1.63;;
52530;SDS011;38441;52.894;6.040;2023-12-28T03:47:24;7.93;;;2.30;;
52530;SDS011;38441;52.894;6.040;2023-12-28T03:49:50;10.15;;;2.20;;
52530;SDS011;38441;52.894;6.040;2023-12-28T03:52:16;7.25;;;1.67;;
52530;SDS011;38441;52.894;6.040;2023-12-28T03:54:42;6.28;;;1.75;;
52530;SDS011;38441;52.894;6.040;2023-12-28T03:57:09;8.88;;;2.28;;
52530;SDS011;38441;52.894;6.040;2023-12-28T03:59:35;10.05;;;2.30;;
52530;SDS011;38441;52.894;6.040;2023-12-28T04:02:01;7.70;;;1.60;;
52530;SDS011;38441;52.894;6.040;2023-12-28T04:04:27;8.27;;;2.03;;
52530;SDS011;38441;52.894;6.040;2023-12-28T04:06:53;8.88;;;1.65;;
52530;SDS011;38441;52.894;6.040;2023-12-28T04:09:19;9.82;;;1.98;;
52530;SDS011;38441;52.894;6.040;2023-12-28T04:11:46;9.90;;;2.78;;
52530;SDS011;38441;52.894;6.040;2023-12-28T04:14:12;9.05;;;1.55;;
52530;SDS011;38441;52.894;6.040;2023-12-28T04:16:38;6.85;;;1.45;;
52530;SDS011;38441;52.894;6.040;2023-12-28T04:19:03;10.15;;;2.08;;
52530;SDS011;38441;52.894;6.040;2023-12-28T04:21:29;10.23;;;2.25;;
52530;SDS011;38441;52.894;6.040;2023-12-28T04:23:55;9.93;;;2.30;;
52530;SDS011;38441;52.894;6.040;2023-12-28T04:26:22;8.48;;;1.77;;
52530;SDS011;38441;52.894;6.040;2023-12-28T04:28:48;11.07;;;2.10;;
52530;SDS011;38441;52.894;6.040;2023-12-28T04:31:14;6.78;;;1.73;;
52530;SDS011;38441;52.894;6.040;2023-12-28T04:33:40;10.52;;;2.05;;
52530;SDS011;38441;52.894;6.040;2023-12-28T04:36:06;10.80;;;2.17;;
52530;SDS011;38441;52.894;6.040;2023-12-28T04:38:32;13.07;;;2.03;;
52530;SDS011;38441;52.894;6.040;2023-12-28T04:40:59;11.68;;;2.40;;
52530;SDS011;38441;52.894;6.040;2023-12-28T04:43:25;10.52;;;1.85;;
52530;SDS011;38441;52.894;6.040;2023-12-28T04:45:51;7.45;;;1.70;;
52530;SDS011;38441;52.894;6.040;2023-12-28T04:48:17;12.68;;;1.90;;
52530;SDS011;38441;52.894;6.040;2023-12-28T04:50:46;7.82;;;1.92;;
52530;SDS011;38441;52.894;6.040;2023-12-28T04:53:13;12.85;;;1.92;;
52530;SDS011;38441;52.894;6.040;2023-12-28T04:55:39;9.10;;;2.00;;
52530;SDS011;38441;52.894;6.040;2023-12-28T04:58:05;12.35;;;1.70;;
52530;SDS011;38441;52.894;6.040;2023-12-28T05:00:31;6.55;;;1.58;;
52530;SDS011;38441;52.894;6.040;2023-12-28T05:02:57;11.40;;;2.00;;
52530;SDS011;38441;52.894;6.040;2023-12-28T05:05:23;9.10;;;1.75;;
52530;SDS011;38441;52.894;6.040;2023-12-28T05:07:49;11.50;;;1.70;;
52530;SDS011;38441;52.894;6.040;2023-12-28T05:10:15;15.95;;;2.55;;
52530;SDS011;38441;52.894;6.040;2023-12-28T05:12:41;8.68;;;2.00;;
52530;SDS011;38441;52.894;6.040;2023-12-28T05:15:07;9.77;;;1.48;;
52530;SDS011;38441;52.894;6.040;2023-12-28T05:17:33;9.38;;;1.90;;
52530;SDS011;38441;52.894;6.040;2023-12-28T05:19:59;10.98;;;1.88;;
52530;SDS011;38441;52.894;6.040;2023-12-28T05:22:25;12.50;;;2.22;;
52530;SDS011;38441;52.894;6.040;2023-12-28T05:24:51;9.18;;;1.65;;
52530;SDS011;38441;52.894;6.040;2023-12-28T05:27:17;8.13;;;1.60;;
52530;SDS011;38441;52.894;6.040;2023-12-28T05:29:43;10.25;;;1.70;;
52530;SDS011;38441;52.894;6.040;2023-12-28T05:32:09;9.45;;;1.55;;
52530;SDS011;38441;52.894;6.040;2023-12-28T05:34:35;8.65;;;1.80;;
52530;SDS011;38441;52.894;6.040;2023-12-28T05:37:01;10.30;;;2.00;;
52530;SDS011;38441;52.894;6.040;2023-12-28T05:39:27;11.48;;;1.75;;
52530;SDS011;38441;52.894;6.040;2023-12-28T05:41:53;12.98;;;2.15;;
52530;SDS011;38441;52.894;6.040;2023-12-28T05:44:19;10.27;;;1.42;;
52530;SDS011;38441;52.894;6.040;2023-12-28T05:46:46;14.02;;;1.95;;
52530;SDS011;38441;52.894;6.040;2023-12-28T05:49:12;13.68;;;2.42;;
52530;SDS011;38441;52.894;6.040;2023-12-28T05:51:41;12.15;;;2.20;;
52530;SDS011;38441;52.894;6.040;2023-12-28T05:54:07;16.08;;;2.50;;
52530;SDS011;38441;52.894;6.040;2023-12-28T05:56:37;8.25;;;1.88;;
52530;SDS011;38441;52.894;6.040;2023-12-28T05:59:03;11.88;;;2.45;;
52530;SDS011;38441;52.894;6.040;2023-12-28T06:01:29;10.05;;;2.33;;
52530;SDS011;38441;52.894;6.040;2023-12-28T06:03:54;9.52;;;2.03;;
52530;SDS011;38441;52.894;6.040;2023-12-28T06:06:20;12.82;;;2.10;;
52530;SDS011;38441;52.894;6.040;2023-12-28T06:08:46;14.40;;;2.55;;
52530;SDS011;38441;52.894;6.040;2023-12-28T06:11:12;13.25;;;2.08;;
52530;SDS011;38441;52.894;6.040;2023-12-28T06:13:38;12.80;;;2.10;;
52530;SDS011;38441;52.894;6.040;2023-12-28T06:16:06;13.80;;;2.42;;
52530;SDS011;38441;52.894;6.040;2023-12-28T06:18:32;13.23;;;1.92;;
52530;SDS011;38441;52.894;6.040;2023-12-28T06:20:58;13.98;;;2.58;;
52530;SDS011;38441;52.894;6.040;2023-12-28T06:23:24;11.48;;;1.73;;
52530;SDS011;38441;52.894;6.040;2023-12-28T06:25:51;8.32;;;1.42;;
52530;SDS011;38441;52.894;6.040;2023-12-28T06:28:17;14.93;;;2.00;;
52530;SDS011;38441;52.894;6.040;2023-12-28T06:30:43;18.80;;;1.88;;
52530;SDS011;38441;52.894;6.040;2023-12-28T06:33:09;12.90;;;2.05;;
52530;SDS011;38441;52.894;6.040;2023-12-28T06:35:35;10.95;;;1.92;;
52530;SDS011;38441;52.894;6.040;2023-12-28T06:38:01;13.15;;;2.13;;
52530;SDS011;38441;52.894;6.040;2023-12-28T06:40:27;9.63;;;1.65;;
52530;SDS011;38441;52.894;6.040;2023-12-28T06:42:53;11.15;;;1.92;;
52530;SDS011;38441;52.894;6.040;2023-12-28T06:45:19;16.08;;;2.33;;
52530;SDS011;38441;52.894;6.040;2023-12-28T06:47:47;13.38;;;2.13;;
52530;SDS011;38441;52.894;6.040;2023-12-28T06:50:13;13.93;;;1.92;;
52530;SDS011;38441;52.894;6.040;2023-12-28T06:52:39;11.52;;;1.90;;
52530;SDS011;38441;52.894;6.040;2023-12-28T06:55:06;15.90;;;2.50;;
52530;SDS011;38441;52.894;6.040;2023-12-28T06:57:32;15.80;;;2.30;;
52530;SDS011;38441;52.894;6.040;2023-12-28T06:59:58;16.25;;;2.33;;
52530;SDS011;38441;52.894;6.040;2023-12-28T07:02:26;16.10;;;2.38;;
52530;SDS011;38441;52.894;6.040;2023-12-28T07:04:52;17.98;;;2.63;;
52530;SDS011;38441;52.894;6.040;2023-12-28T07:07:18;16.33;;;2.72;;
52530;SDS011;38441;52.894;6.040;2023-12-28T07:09:44;16.63;;;2.50;;
52530;SDS011;38441;52.894;6.040;2023-12-28T07:12:10;14.30;;;1.90;;
52530;SDS011;38441;52.894;6.040;2023-12-28T07:14:37;15.18;;;2.70;;
52530;SDS011;38441;52.894;6.040;2023-12-28T07:17:03;12.27;;;2.33;;
52530;SDS011;38441;52.894;6.040;2023-12-28T07:19:29;11.02;;;2.30;;
52530;SDS011;38441;52.894;6.040;2023-12-28T07:21:55;12.93;;;2.70;;
52530;SDS011;38441;52.894;6.040;2023-12-28T07:24:21;14.10;;;2.20;;
52530;SDS011;38441;52.894;6.040;2023-12-28T07:26:47;15.85;;;1.88;;
52530;SDS011;38441;52.894;6.040;2023-12-28T07:29:13;16.95;;;3.20;;
52530;SDS011;38441;52.894;6.040;2023-12-28T07:31:39;21.67;;;4.47;;
52530;SDS011;38441;52.894;6.040;2023-12-28T07:34:05;16.67;;;3.42;;
52530;SDS011;38441;52.894;6.040;2023-12-28T07:36:31;16.35;;;2.95;;
52530;SDS011;38441;52.894;6.040;2023-12-28T07:38:57;16.67;;;2.45;;
52530;SDS011;38441;52.894;6.040;2023-12-28T07:41:23;15.02;;;3.13;;
52530;SDS011;38441;52.894;6.040;2023-12-28T07:43:49;17.30;;;3.08;;
52530;SDS011;38441;52.894;6.040;2023-12-28T07:46:15;16.67;;;3.53;;
52530;SDS011;38441;52.894;6.040;2023-12-28T07:48:41;15.93;;;3.25;;
52530;SDS011;38441;52.894;6.040;2023-12-28T07:51:07;12.45;;;2.63;;
52530;SDS011;38441;52.894;6.040;2023-12-28T07:53:33;18.17;;;3.35;;
52530;SDS011;38441;52.894;6.040;2023-12-28T07:55:59;19.50;;;3.85;;
52530;SDS011;38441;52.894;6.040;2023-12-28T07:58:25;20.60;;;3.40;;
52530;SDS011;38441;52.894;6.040;2023-12-28T08:00:51;16.20;;;3.75;;
52530;SDS011;38441;52.894;6.040;2023-12-28T08:03:17;18.50;;;3.53;;
52530;SDS011;38441;52.894;6.040;2023-12-28T08:05:44;16.00;;;3.28;;
52530;SDS011;38441;52.894;6.040;2023-12-28T08:08:10;18.77;;;3.13;;
52530;SDS011;38441;52.894;6.040;2023-12-28T08:10:36;14.63;;;2.50;;
52530;SDS011;38441;52.894;6.040;2023-12-28T08:13:02;15.77;;;2.72;;
52530;SDS011;38441;52.894;6.040;2023-12-28T08:15:28;18.60;;;3.25;;
52530;SDS011;38441;52.894;6.040;2023-12-28T08:17:54;18.65;;;3.47;;
52530;SDS011;38441;52.894;6.040;2023-12-28T08:20:23;19.15;;;3.08;;
52530;SDS011;38441;52.894;6.040;2023-12-28T08:22:49;17.45;;;2.67;;
52530;SDS011;38441;52.894;6.040;2023-12-28T08:25:15;21.98;;;3.13;;
52530;SDS011;38441;52.894;6.040;2023-12-28T08:27:41;17.83;;;3.20;;
52530;SDS011;38441;52.894;6.040;2023-12-28T08:30:07;19.30;;;3.25;;
52530;SDS011;38441;52.894;6.040;2023-12-28T08:32:35;23.83;;;3.70;;
52530;SDS011;38441;52.894;6.040;2023-12-28T08:35:01;21.05;;;3.42;;
52530;SDS011;38441;52.894;6.040;2023-12-28T08:37:27;18.75;;;3.65;;
52530;SDS011;38441;52.894;6.040;2023-12-28T08:39:53;18.58;;;4.18;;
52530;SDS011;38441;52.894;6.040;2023-12-28T08:42:20;16.58;;;3.47;;
52530;SDS011;38441;52.894;6.040;2023-12-28T08:44:46;15.52;;;3.15;;
52530;SDS011;38441;52.894;6.040;2023-12-28T08:47:11;16.77;;;3.38;;
52530;SDS011;38441;52.894;6.040;2023-12-28T08:49:37;19.90;;;2.78;;
52530;SDS011;38441;52.894;6.040;2023-12-28T08:52:03;21.13;;;3.35;;
52530;SDS011;38441;52.894;6.040;2023-12-28T08:54:28;22.90;;;3.95;;
52530;SDS011;38441;52.894;6.040;2023-12-28T08:56:54;16.00;;;3.25;;
52530;SDS011;38441;52.894;6.040;2023-12-28T08:59:20;20.38;;;2.58;;
52530;SDS011;38441;52.894;6.040;2023-12-28T09:01:46;24.77;;;3.63;;
52530;SDS011;38441;52.894;6.040;2023-12-28T09:04:12;20.48;;;3.38;;
52530;SDS011;38441;52.894;6.040;2023-12-28T09:06:39;25.05;;;3.33;;
52530;SDS011;38441;52.894;6.040;2023-12-28T09:09:04;14.93;;;3.30;;
52530;SDS011;38441;52.894;6.040;2023-12-28T09:11:31;18.77;;;3.95;;
52530;SDS011;38441;52.894;6.040;2023-12-28T09:13:56;17.92;;;3.45;;
52530;SDS011;38441;52.894;6.040;2023-12-28T09:16:22;20.88;;;3.33;;
52530;SDS011;38441;52.894;6.040;2023-12-28T09:18:48;23.15;;;2.92;;
52530;SDS011;38441;52.894;6.040;2023-12-28T09:21:14;19.75;;;3.17;;
52530;SDS011;38441;52.894;6.040;2023-12-28T09:23:40;20.80;;;4.07;;
52530;SDS011;38441;52.894;6.040;2023-12-28T09:26:06;15.98;;;3.65;;
52530;SDS011;38441;52.894;6.040;2023-12-28T09:28:33;16.10;;;3.33;;
52530;SDS011;38441;52.894;6.040;2023-12-28T09:31:02;24.90;;;3.67;;
52530;SDS011;38441;52.894;6.040;2023-12-28T09:33:28;21.70;;;3.63;;
52530;SDS011;38441;52.894;6.040;2023-12-28T09:35:54;18.67;;;2.97;;
52530;SDS011;38441;52.894;6.040;2023-12-28T09:38:19;20.35;;;3.45;;
52530;SDS011;38441;52.894;6.040;2023-12-28T09:40:46;17.60;;;2.92;;
52530;SDS011;38441;52.894;6.040;2023-12-28T09:43:19;17.67;;;2.83;;
52530;SDS011;38441;52.894;6.040;2023-12-28T09:45:50;18.33;;;3.33;;
52530;SDS011;38441;52.894;6.040;2023-12-28T09:48:17;17.38;;;2.78;;
52530;SDS011;38441;52.894;6.040;2023-12-28T09:50:44;18.63;;;3.17;;
52530;SDS011;38441;52.894;6.040;2023-12-28T09:53:19;19.65;;;3.45;;
52530;SDS011;38441;52.894;6.040;2023-12-28T09:55:54;18.10;;;3.55;;
52530;SDS011;38441;52.894;6.040;2023-12-28T09:58:21;15.63;;;3.28;;
52530;SDS011;38441;52.894;6.040;2023-12-28T10:00:48;22.63;;;3.28;;
52530;SDS011;38441;52.894;6.040;2023-12-28T10:03:15;11.20;;;2.55;;
52530;SDS011;38441;52.894;6.040;2023-12-28T10:05:42;15.02;;;2.70;;
52530;SDS011;38441;52.894;6.040;2023-12-28T10:08:12;19.42;;;3.47;;
52530;SDS011;38441;52.894;6.040;2023-12-28T10:10:39;16.08;;;2.45;;
52530;SDS011;38441;52.894;6.040;2023-12-28T10:13:08;13.43;;;2.90;;
52530;SDS011;38441;52.894;6.040;2023-12-28T10:15:35;14.73;;;3.13;;
52530;SDS011;38441;52.894;6.040;2023-12-28T10:18:03;15.77;;;2.80;;
52530;SDS011;38441;52.894;6.040;2023-12-28T10:20:31;19.80;;;2.95;;
52530;SDS011;38441;52.894;6.040;2023-12-28T10:22:57;14.88;;;2.60;;
52530;SDS011;38441;52.894;6.040;2023-12-28T10:25:24;14.25;;;2.65;;
52530;SDS011;38441;52.894;6.040;2023-12-28T10:27:50;13.15;;;2.90;;
52530;SDS011;38441;52.894;6.040;2023-12-28T10:30:20;16.25;;;3.10;;
52530;SDS011;38441;52.894;6.040;2023-12-28T10:32:46;17.10;;;3.35;;
52530;SDS011;38441;52.894;6.040;2023-12-28T10:35:12;21.10;;;3.45;;
52530;SDS011;38441;52.894;6.040;2023-12-28T10:37:39;16.65;;;3.13;;
52530;SDS011;38441;52.894;6.040;2023-12-28T10:40:12;18.52;;;2.75;;
52530;SDS011;38441;52.894;6.040;2023-12-28T10:45:16;14.05;;;2.58;;
52530;SDS011;38441;52.894;6.040;2023-12-28T10:47:52;16.40;;;3.10;;
52530;SDS011;38441;52.894;6.040;2023-12-28T10:50:42;19.52;;;2.58;;
52530;SDS011;38441;52.894;6.040;2023-12-28T10:55:53;14.57;;;2.65;;
52530;SDS011;38441;52.894;6.040;2023-12-28T10:58:47;17.75;;;2.70;;
52530;SDS011;38441;52.894;6.040;2023-12-28T11:01:54;18.90;;;2.80;;
52530;SDS011;38441;52.894;6.040;2023-12-28T11:04:30;19.80;;;2.80;;
52530;SDS011;38441;52.894;6.040;2023-12-28T11:06:57;18.38;;;3.03;;
52530;SDS011;38441;52.894;6.040;2023-12-28T11:09:24;17.15;;;3.30;;
52530;SDS011;38441;52.894;6.040;2023-12-28T11:11:55;13.40;;;2.65;;
52530;SDS011;38441;52.894;6.040;2023-12-28T11:14:24;14.52;;;2.97;;
52530;SDS011;38441;52.894;6.040;2023-12-28T11:16:51;22.45;;;3.38;;
52530;SDS011;38441;52.894;6.040;2023-12-28T11:19:18;17.92;;;3.65;;
52530;SDS011;38441;52.894;6.040;2023-12-28T11:21:46;18.92;;;3.13;;
52530;SDS011;38441;52.894;6.040;2023-12-28T11:24:16;11.32;;;2.42;;
52530;SDS011;38441;52.894;6.040;2023-12-28T11:26:42;11.38;;;2.10;;
52530;SDS011;38441;52.894;6.040;2023-12-28T11:29:08;12.85;;;2.55;;
52530;SDS011;38441;52.894;6.040;2023-12-28T11:31:35;18.15;;;3.67;;
52530;SDS011;38441;52.894;6.040;2023-12-28T11:34:01;18.88;;;3.22;;
52530;SDS011;38441;52.894;6.040;2023-12-28T11:36:33;19.95;;;3.63;;
52530;SDS011;38441;52.894;6.040;2023-12-28T11:39:04;19.63;;;3.25;;
52530;SDS011;38441;52.894;6.040;2023-12-28T11:41:38;19.45;;;2.72;;
52530;SDS011;38441;52.894;6.040;2023-12-28T11:44:04;15.88;;;2.83;;
52530;SDS011;38441;52.894;6.040;2023-12-28T11:46:34;18.25;;;2.67;;
52530;SDS011;38441;52.894;6.040;2023-12-28T11:49:04;19.30;;;3.60;;
52530;SDS011;38441;52.894;6.040;2023-12-28T11:51:30;13.30;;;2.63;;
52530;SDS011;38441;52.894;6.040;2023-12-28T11:53:57;23.17;;;3.53;;
52530;SDS011;38441;52.894;6.040;2023-12-28T11:56:24;15.88;;;2.72;;
52530;SDS011;38441;52.894;6.040;2023-12-28T11:58:51;24.08;;;4.00;;
52530;SDS011;38441;52.894;6.040;2023-12-28T12:01:16;16.98;;;2.85;;
52530;SDS011;38441;52.894;6.040;2023-12-28T12:03:42;19.60;;;3.58;;
52530;SDS011;38441;52.894;6.040;2023-12-28T12:06:08;18.02;;;3.22;;
52530;SDS011;38441;52.894;6.040;2023-12-28T12:08:34;21.85;;;3.55;;
52530;SDS011;38441;52.894;6.040;2023-12-28T12:11:01;16.70;;;3.47;;
52530;SDS011;38441;52.894;6.040;2023-12-28T12:13:29;16.73;;;3.30;;
52530;SDS011;38441;52.894;6.040;2023-12-28T12:15:55;20.60;;;3.15;;
52530;SDS011;38441;52.894;6.040;2023-12-28T12:18:21;22.92;;;3.83;;
52530;SDS011;38441;52.894;6.040;2023-12-28T12:20:47;19.67;;;2.90;;
52530;SDS011;38441;52.894;6.040;2023-12-28T12:23:14;19.17;;;3.10;;
52530;SDS011;38441;52.894;6.040;2023-12-28T12:25:40;21.63;;;3.83;;
52530;SDS011;38441;52.894;6.040;2023-12-28T12:28:07;14.93;;;3.28;;
52530;SDS011;38441;52.894;6.040;2023-12-28T12:30:33;16.30;;;2.72;;
52530;SDS011;38441;52.894;6.040;2023-12-28T12:33:00;19.48;;;2.97;;
52530;SDS011;38441;52.894;6.040;2023-12-28T12:35:26;22.52;;;3.97;;
52530;SDS011;38441;52.894;6.040;2023-12-28T12:37:52;19.02;;;4.00;;
52530;SDS011;38441;52.894;6.040;2023-12-28T12:40:19;21.75;;;3.70;;
52530;SDS011;38441;52.894;6.040;2023-12-28T12:42:54;18.80;;;4.00;;
52530;SDS011;38441;52.894;6.040;2023-12-28T12:45:21;23.27;;;3.95;;
52530;SDS011;38441;52.894;6.040;2023-12-28T12:47:47;17.35;;;3.60;;
52530;SDS011;38441;52.894;6.040;2023-12-28T12:50:13;22.75;;;4.82;;
52530;SDS011;38441;52.894;6.040;2023-12-28T12:52:40;21.25;;;4.55;;
52530;SDS011;38441;52.894;6.040;2023-12-28T12:55:10;19.77;;;4.07;;
52530;SDS011;38441;52.894;6.040;2023-12-28T12:57:36;15.05;;;3.40;;
52530;SDS011;38441;52.894;6.040;2023-12-28T13:00:03;21.77;;;3.88;;
52530;SDS011;38441;52.894;6.040;2023-12-28T13:02:33;18.42;;;3.63;;
52530;SDS011;38441;52.894;6.040;2023-12-28T13:04:59;14.77;;;3.15;;
52530;SDS011;38441;52.894;6.040;2023-12-28T13:07:24;18.85;;;3.28;;
52530;SDS011;38441;52.894;6.040;2023-12-28T13:09:50;14.68;;;3.13;;
52530;SDS011;38441;52.894;6.040;2023-12-28T13:12:16;18.33;;;3.35;;
52530;SDS011;38441;52.894;6.040;2023-12-28T13:14:42;15.48;;;1.98;;
52530;SDS011;38441;52.894;6.040;2023-12-28T13:17:09;23.02;;;4.32;;
52530;SDS011;38441;52.894;6.040;2023-12-28T13:19:35;19.23;;;3.22;;
52530;SDS011;38441;52.894;6.040;2023-12-28T13:22:01;19.40;;;3.28;;
52530;SDS011;38441;52.894;6.040;2023-12-28T13:24:27;12.15;;;2.63;;
52530;SDS011;38441;52.894;6.040;2023-12-28T13:26:53;22.73;;;3.97;;
52530;SDS011;38441;52.894;6.040;2023-12-28T13:29:18;14.27;;;2.78;;
52530;SDS011;38441;52.894;6.040;2023-12-28T13:31:44;20.13;;;3.10;;
52530;SDS011;38441;52.894;6.040;2023-12-28T13:34:12;17.55;;;3.75;;
52530;SDS011;38441;52.894;6.040;2023-12-28T13:36:50;13.30;;;2.50;;
52530;SDS011;38441;52.894;6.040;2023-12-28T13:39:15;23.60;;;4.05;;
52530;SDS011;38441;52.894;6.040;2023-12-28T13:41:42;17.20;;;2.83;;
52530;SDS011;38441;52.894;6.040;2023-12-28T13:44:08;19.88;;;3.22;;
52530;SDS011;38441;52.894;6.040;2023-12-28T13:46:37;13.45;;;3.15;;
52530;SDS011;38441;52.894;6.040;2023-12-28T13:49:04;17.40;;;3.10;;
52530;SDS011;38441;52.894;6.040;2023-12-28T13:51:31;20.98;;;3.42;;
52530;SDS011;38441;52.894;6.040;2023-12-28T13:53:57;17.27;;;2.38;;
52530;SDS011;38441;52.894;6.040;2023-12-28T13:56:22;19.05;;;3.58;;
52530;SDS011;38441;52.894;6.040;2023-12-28T13:58:48;15.25;;;2.70;;
52530;SDS011;38441;52.894;6.040;2023-12-28T14:01:14;15.55;;;3.05;;
52530;SDS011;38441;52.894;6.040;2023-12-28T14:03:39;19.17;;;3.08;;
52530;SDS011;38441;52.894;6.040;2023-12-28T14:06:05;16.83;;;2.78;;
52530;SDS011;38441;52.894;6.040;2023-12-28T14:08:31;20.38;;;3.20;;
52530;SDS011;38441;52.894;6.040;2023-12-28T14:10:57;20.63;;;3.38;;
52530;SDS011;38441;52.894;6.040;2023-12-28T14:13:23;17.73;;;2.88;;
52530;SDS011;38441;52.894;6.040;2023-12-28T14:15:48;16.70;;;3.60;;
52530;SDS011;38441;52.894;6.040;2023-12-28T14:18:14;18.90;;;3.47;;
52530;SDS011;38441;52.894;6.040;2023-12-28T14:20:40;19.50;;;2.97;;
52530;SDS011;38441;52.894;6.040;2023-12-28T14:23:06;23.08;;;3.65;;
52530;SDS011;38441;52.894;6.040;2023-12-28T14:25:31;22.98;;;4.13;;
52530;SDS011;38441;52.894;6.040;2023-12-28T14:27:57;17.67;;;3.53;;
52530;SDS011;38441;52.894;6.040;2023-12-28T14:30:23;18.90;;;4.07;;
52530;SDS011;38441;52.894;6.040;2023-12-28T14:32:49;30.45;;;8.32;;
52530;SDS011;38441;52.894;6.040;2023-12-28T14:35:15;21.35;;;5.43;;
52530;SDS011;38441;52.894;6.040;2023-12-28T14:37:43;22.30;;;4.47;;
52530;SDS011;38441;52.894;6.040;2023-12-28T14:40:09;18.38;;;4.43;;